Time;durP1;ratioP1;P1;durP2;ratioP2;P2;SDS_P1;SDS_P2;PMS_P1;PMS_P2;Temp;Humidity;BMP_temperature;BMP_pressure;BME280_temperature;BME280_humidity;BME280_pressure;Samples;Min_cycle;Max_cycle;Signal;HPM_P1;HPM_P2
2021/03/04 00:02:05;;;;;;;31.30;21.90;;;6.40;99.90;;;;;;5034312;28;20237;-41
2021/03/04 00:04:32;;;;;;;27.15;21.40;;;6.40;99.90;;;;;;5034565;28;20240;-40
2021/03/04 00:07:00;;;;;;;28.00;21.35;;;6.40;99.90;;;;;;5034333;28;20240;-40
2021/03/04 00:09:27;;;;;;;30.70;22.65;;;6.40;99.90;;;;;;5034346;28;20209;-41
2021/03/04 00:11:54;;;;;;;35.95;23.95;;;6.40;99.90;;;;;;5034500;28;20269;-40
2021/03/04 00:14:21;;;;;;;30.48;22.15;;;6.40;99.90;;;;;;5034454;28;20209;-40
2021/03/04 00:16:48;;;;;;;29.05;21.65;;;6.40;99.90;;;;;;5034217;28;20307;-40
2021/03/04 00:19:16;;;;;;;27.38;21.80;;;6.40;99.90;;;;;;5034128;28;20213;-40
2021/03/04 00:21:43;;;;;;;31.30;23.05;;;6.40;99.90;;;;;;5034136;28;20204;-39
2021/03/04 00:24:11;;;;;;;28.33;21.83;;;6.40;99.90;;;;;;5034032;28;20270;-40
2021/03/04 00:26:38;;;;;;;31.77;23.58;;;6.50;99.90;;;;;;5034168;28;20209;-40
2021/03/04 00:29:05;;;;;;;29.63;21.63;;;6.50;99.90;;;;;;5033979;28;20209;-40
2021/03/04 00:31:31;;;;;;;31.10;22.95;;;6.50;99.90;;;;;;5033774;28;20235;-40
2021/03/04 00:33:59;;;;;;;27.67;20.73;;;6.50;99.90;;;;;;5033866;28;20579;-40
2021/03/04 00:36:26;;;;;;;26.23;21.75;;;6.60;99.90;;;;;;5033977;28;20741;-40
2021/03/04 00:38:53;;;;;;;29.17;21.38;;;6.60;99.90;;;;;;5033880;28;20329;-39
2021/03/04 00:41:21;;;;;;;24.27;20.50;;;6.60;99.90;;;;;;5033877;28;20243;-40
2021/03/04 00:43:48;;;;;;;25.77;19.40;;;6.60;99.90;;;;;;5033805;28;20313;-40
2021/03/04 00:46:15;;;;;;;24.75;20.67;;;6.60;99.90;;;;;;5033932;28;20215;-39
2021/03/04 00:48:42;;;;;;;29.60;20.98;;;6.60;99.90;;;;;;5033497;28;20209;-41
2021/03/04 00:51:09;;;;;;;24.75;19.60;;;6.50;99.90;;;;;;5033374;28;20584;-40
2021/03/04 00:53:36;;;;;;;29.42;21.17;;;6.50;99.90;;;;;;5033661;28;20208;-40
2021/03/04 00:56:03;;;;;;;25.35;19.70;;;6.50;99.90;;;;;;5033675;28;20295;-40
2021/03/04 00:58:31;;;;;;;26.52;20.90;;;6.50;99.90;;;;;;5033381;28;20746;-40
2021/03/04 01:00:58;;;;;;;25.65;18.98;;;6.50;99.90;;;;;;5033164;28;20208;-39
2021/03/04 01:03:25;;;;;;;28.30;19.15;;;6.50;99.90;;;;;;5033411;28;20219;-40
2021/03/04 01:05:52;;;;;;;23.58;18.63;;;6.40;99.90;;;;;;5033219;28;20771;-38
2021/03/04 01:08:19;;;;;;;26.30;20.08;;;6.40;99.90;;;;;;5033289;28;20701;-45
2021/03/04 01:10:46;;;;;;;27.00;20.90;;;6.30;99.90;;;;;;5033404;28;20683;-41
2021/03/04 01:13:13;;;;;;;26.70;20.77;;;6.30;99.90;;;;;;5032329;28;20306;-39
2021/03/04 01:15:41;;;;;;;28.27;19.73;;;6.20;99.90;;;;;;5032995;28;20296;-39
2021/03/04 01:18:25;;;;;;;25.40;18.35;;;6.30;99.90;;;;;;5033075;28;20307;-38
2021/03/04 01:20:52;;;;;;;24.48;19.33;;;6.30;99.90;;;;;;5032947;28;20729;-39
2021/03/04 01:23:19;;;;;;;24.70;18.08;;;6.40;99.90;;;;;;5033086;28;20244;-39
2021/03/04 01:25:46;;;;;;;22.35;18.40;;;6.40;99.90;;;;;;5033022;28;20311;-38
2021/03/04 01:28:14;;;;;;;25.35;18.77;;;6.40;99.90;;;;;;5032754;28;20217;-39
2021/03/04 01:30:42;;;;;;;26.10;19.70;;;6.30;99.90;;;;;;5032875;28;20642;-38
2021/03/04 01:33:18;;;;;;;27.33;19.17;;;6.40;99.90;;;;;;5032770;28;20228;-39
2021/03/04 01:35:46;;;;;;;26.35;19.63;;;6.30;99.90;;;;;;5032761;28;20239;-39
2021/03/04 01:38:14;;;;;;;27.42;19.95;;;6.30;99.90;;;;;;5032672;28;20213;-39
2021/03/04 01:40:41;;;;;;;27.65;18.20;;;6.40;99.90;;;;;;5032670;28;20279;-39
2021/03/04 01:43:08;;;;;;;21.75;18.15;;;6.40;99.90;;;;;;5032475;28;20204;-38
2021/03/04 01:45:35;;;;;;;27.38;17.85;;;6.40;99.90;;;;;;5032495;28;20675;-39
2021/03/04 01:48:06;;;;;;;20.80;16.60;;;6.50;99.90;;;;;;5032449;28;20205;-38
2021/03/04 01:50:33;;;;;;;22.42;18.00;;;6.50;99.90;;;;;;5032530;28;20612;-38
2021/03/04 01:53:00;;;;;;;22.30;16.85;;;6.60;99.90;;;;;;5032474;28;20316;-39
2021/03/04 01:55:28;;;;;;;22.10;19.33;;;6.60;99.90;;;;;;5032432;28;20402;-39
2021/03/04 01:57:56;;;;;;;19.90;16.40;;;6.60;99.90;;;;;;5032591;28;20322;-39
2021/03/04 02:00:23;;;;;;;21.40;17.48;;;6.60;99.90;;;;;;5032859;28;20204;-39
2021/03/04 02:02:50;;;;;;;23.75;17.08;;;6.60;99.90;;;;;;5032263;28;20237;-39
2021/03/04 02:05:19;;;;;;;22.42;16.85;;;6.60;99.90;;;;;;5032187;28;20625;-38
2021/03/04 02:07:56;;;;;;;19.65;15.27;;;6.60;99.90;;;;;;5032070;28;20707;-38
2021/03/04 02:10:31;;;;;;;18.35;15.90;;;6.60;99.90;;;;;;5032440;28;20239;-38
2021/03/04 02:13:05;;;;;;;19.40;16.50;;;6.60;99.90;;;;;;5032082;28;20278;-39
2021/03/04 02:15:38;;;;;;;23.08;17.13;;;6.70;99.90;;;;;;5032226;28;20211;-38
2021/03/04 02:18:10;;;;;;;20.80;16.17;;;6.70;99.80;;;;;;5032183;28;20311;-39
2021/03/04 02:20:54;;;;;;;18.73;15.00;;;6.80;99.70;;;;;;5032066;28;20228;-38
2021/03/04 02:23:37;;;;;;;17.75;14.98;;;6.80;99.70;;;;;;5032193;28;20240;-38
2021/03/04 02:26:14;;;;;;;18.50;14.15;;;6.80;99.70;;;;;;5031269;28;20209;-38
2021/03/04 02:28:45;;;;;;;19.60;15.20;;;6.80;99.60;;;;;;5031949;28;20295;-38
2021/03/04 02:31:13;;;;;;;19.25;16.08;;;6.80;99.50;;;;;;5032024;28;20267;-38
2021/03/04 02:33:42;;;;;;;21.83;16.58;;;6.90;99.50;;;;;;5031815;28;20576;-40
2021/03/04 02:36:10;;;;;;;19.08;16.80;;;6.90;99.40;;;;;;5031897;28;20694;-41
2021/03/04 02:38:37;;;;;;;21.42;17.27;;;6.90;99.40;;;;;;5031807;28;20212;-41
2021/03/04 02:41:06;;;;;;;21.98;17.00;;;6.90;99.30;;;;;;5031674;28;20303;-40
2021/03/04 02:43:36;;;;;;;21.10;16.88;;;6.90;99.30;;;;;;5031540;28;20339;-39
2021/03/04 02:46:04;;;;;;;21.80;15.82;;;7.00;99.30;;;;;;5031860;28;20258;-41
2021/03/04 02:48:33;;;;;;;24.63;16.10;;;7.00;99.20;;;;;;5031782;28;20215;-40
2021/03/04 02:51:01;;;;;;;20.48;16.25;;;7.00;99.10;;;;;;5031837;28;20221;-40
2021/03/04 02:53:29;;;;;;;21.67;16.08;;;7.00;99.10;;;;;;5031603;28;20608;-40
2021/03/04 02:55:57;;;;;;;22.52;15.68;;;7.00;99.10;;;;;;5031594;28;20326;-40
2021/03/04 02:58:26;;;;;;;19.75;15.02;;;7.00;99.10;;;;;;5031628;28;20328;-39
2021/03/04 03:00:54;;;;;;;19.05;14.90;;;7.00;99.20;;;;;;5031551;28;20244;-39
2021/03/04 03:03:22;;;;;;;21.35;16.40;;;6.90;99.30;;;;;;5031433;28;20323;-39
2021/03/04 03:05:50;;;;;;;20.25;14.52;;;6.90;99.30;;;;;;5031499;28;20315;-39
2021/03/04 03:08:19;;;;;;;21.05;15.35;;;6.80;99.60;;;;;;5031525;28;20212;-40
2021/03/04 03:10:48;;;;;;;19.20;14.82;;;6.80;99.40;;;;;;5031455;28;20239;-40
2021/03/04 03:13:16;;;;;;;25.77;14.85;;;6.80;99.30;;;;;;5031431;28;20266;-42
2021/03/04 03:15:43;;;;;;;21.25;15.15;;;6.90;99.30;;;;;;5031373;28;20671;-40
2021/03/04 03:18:11;;;;;;;21.20;14.38;;;7.00;99.20;;;;;;5031268;28;20208;-40
2021/03/04 03:20:39;;;;;;;21.77;15.90;;;7.00;99.20;;;;;;5031371;28;20666;-39
2021/03/04 03:23:06;;;;;;;18.25;14.52;;;7.00;99.20;;;;;;5031308;28;20671;-41
2021/03/04 03:25:33;;;;;;;19.15;14.40;;;7.00;99.20;;;;;;5031317;28;20283;-39
2021/03/04 03:28:00;;;;;;;21.92;15.55;;;7.00;99.20;;;;;;5031283;28;20235;-42
2021/03/04 03:30:30;;;;;;;17.73;14.77;;;7.00;99.20;;;;;;5031349;28;20215;-41
2021/03/04 03:32:59;;;;;;;18.40;15.65;;;7.00;99.20;;;;;;5031246;28;20586;-41
2021/03/04 03:35:26;;;;;;;18.63;14.65;;;7.00;99.20;;;;;;5031056;28;20212;-40
2021/03/04 03:37:56;;;;;;;23.23;15.85;;;7.10;99.20;;;;;;5035054;28;20303;-40
2021/03/04 03:40:24;;;;;;;23.77;16.55;;;7.00;99.20;;;;;;5034853;28;20671;-39
2021/03/04 03:42:52;;;;;;;18.23;14.77;;;7.00;99.20;;;;;;5034891;28;20208;-40
2021/03/04 03:45:23;;;;;;;16.75;14.40;;;7.00;99.30;;;;;;5034907;28;20213;-40
2021/03/04 03:47:51;;;;;;;19.55;14.30;;;6.90;99.30;;;;;;5034738;28;20637;-40
2021/03/04 03:50:23;;;;;;;20.02;15.07;;;6.90;99.40;;;;;;5034655;28;20219;-39
2021/03/04 03:52:52;;;;;;;20.05;14.63;;;7.00;99.30;;;;;;5034716;28;20228;-39
2021/03/04 03:55:21;;;;;;;21.45;15.90;;;7.00;99.30;;;;;;5034692;28;20295;-39
2021/03/04 03:57:50;;;;;;;19.38;15.48;;;7.00;99.20;;;;;;5034645;28;20209;-39
2021/03/04 04:00:23;;;;;;;22.23;14.52;;;7.00;99.20;;;;;;5034462;28;20255;-39
2021/03/04 04:02:54;;;;;;;22.10;14.85;;;7.00;99.20;;;;;;5034467;28;20259;-40
2021/03/04 04:05:21;;;;;;;20.95;14.27;;;7.00;99.20;;;;;;5035223;28;20292;-39
2021/03/04 04:07:50;;;;;;;18.90;15.30;;;7.10;99.20;;;;;;5034697;28;20554;-38
2021/03/04 04:10:17;;;;;;;21.90;13.80;;;7.10;99.20;;;;;;5034420;28;20579;-39
2021/03/04 04:12:45;;;;;;;17.65;13.82;;;7.10;99.20;;;;;;5034065;28;20319;-38
2021/03/04 04:15:12;;;;;;;19.17;14.98;;;7.10;99.10;;;;;;5034129;28;20263;-38
2021/03/04 04:17:40;;;;;;;19.77;16.33;;;7.10;99.10;;;;;;5034172;28;20644;-39
2021/03/04 04:20:08;;;;;;;19.77;15.43;;;7.00;99.20;;;;;;5034121;28;20213;-40
2021/03/04 04:22:35;;;;;;;22.92;15.15;;;7.00;99.30;;;;;;5034349;28;20287;-40
2021/03/04 04:25:03;;;;;;;18.92;16.25;;;7.00;99.30;;;;;;5034232;28;20302;-40
2021/03/04 04:27:30;;;;;;;21.52;16.42;;;7.00;99.30;;;;;;5033997;28;20240;-41
2021/03/04 04:29:58;;;;;;;16.88;13.85;;;7.00;99.40;;;;;;5034289;28;20240;-41
2021/03/04 04:32:25;;;;;;;20.13;14.80;;;7.00;99.30;;;;;;5034079;28;20671;-40
2021/03/04 04:34:52;;;;;;;15.02;12.93;;;7.10;99.30;;;;;;5034087;28;20595;-40
2021/03/04 04:37:19;;;;;;;23.23;15.80;;;7.10;99.30;;;;;;5033888;28;20212;-41
2021/03/04 04:39:46;;;;;;;19.08;14.57;;;7.10;99.20;;;;;;5033768;28;20213;-40
2021/03/04 04:42:13;;;;;;;20.63;14.75;;;7.20;99.20;;;;;;5033712;28;20232;-40
2021/03/04 04:44:40;;;;;;;25.17;15.27;;;7.10;99.20;;;;;;5034113;28;20640;-41
2021/03/04 04:47:08;;;;;;;17.67;14.02;;;7.10;99.20;;;;;;5033611;28;20240;-40
2021/03/04 04:49:35;;;;;;;17.20;14.30;;;7.10;99.30;;;;;;5033236;28;20263;-40
2021/03/04 04:52:02;;;;;;;23.25;15.20;;;7.10;99.30;;;;;;5033562;28;20229;-40
2021/03/04 04:54:29;;;;;;;17.20;13.60;;;7.00;99.40;;;;;;5033349;28;20582;-40
2021/03/04 04:56:56;;;;;;;17.52;14.52;;;7.10;99.40;;;;;;5033418;28;20209;-40
2021/03/04 04:59:23;;;;;;;18.00;14.57;;;7.10;99.30;;;;;;5033438;28;20299;-43
2021/03/04 05:01:51;;;;;;;19.42;14.77;;;7.10;99.30;;;;;;5033206;28;20244;-41
2021/03/04 05:04:19;;;;;;;19.73;13.95;;;7.10;99.30;;;;;;5033081;28;20729;-41
2021/03/04 05:06:46;;;;;;;19.65;14.30;;;7.20;99.30;;;;;;5033084;28;20259;-39
2021/03/04 05:09:13;;;;;;;22.67;14.50;;;7.20;99.30;;;;;;5033212;28;20205;-38
2021/03/04 05:11:40;;;;;;;19.10;14.30;;;7.20;99.30;;;;;;5033355;28;20243;-38
2021/03/04 05:14:07;;;;;;;20.25;14.23;;;7.20;99.30;;;;;;5033560;28;20220;-38
2021/03/04 05:16:34;;;;;;;18.90;14.02;;;7.20;99.30;;;;;;5033287;28;20299;-39
2021/03/04 05:19:02;;;;;;;21.85;14.23;;;7.20;99.30;;;;;;5033268;28;20219;-40
2021/03/04 05:21:33;;;;;;;16.33;12.50;;;7.20;99.30;;;;;;5033436;28;20217;-41
2021/03/04 05:24:00;;;;;;;15.38;12.40;;;7.30;99.20;;;;;;5033330;28;20315;-40
2021/03/04 05:26:27;;;;;;;21.35;16.25;;;7.30;98.90;;;;;;5032963;28;20216;-40
2021/03/04 05:28:54;;;;;;;31.10;22.70;;;7.30;98.90;;;;;;5033078;28;20236;-40
2021/03/04 05:31:22;;;;;;;22.27;15.25;;;7.30;98.80;;;;;;5032742;28;20205;-40
2021/03/04 05:33:49;;;;;;;15.98;12.40;;;7.30;98.80;;;;;;5032823;28;20571;-39
2021/03/04 05:36:16;;;;;;;14.68;11.95;;;7.40;98.80;;;;;;5032528;28;20248;-38
2021/03/04 05:38:44;;;;;;;22.60;13.05;;;7.40;98.80;;;;;;5032629;28;20300;-39
2021/03/04 05:41:12;;;;;;;21.05;12.80;;;7.40;98.80;;;;;;5032588;28;20271;-38
2021/03/04 05:43:39;;;;;;;18.50;13.07;;;7.30;98.80;;;;;;5032639;28;20670;-38
2021/03/04 05:46:06;;;;;;;21.95;13.32;;;7.30;98.90;;;;;;5032735;28;20243;-39
2021/03/04 05:48:34;;;;;;;20.48;12.23;;;7.30;98.90;;;;;;5032533;28;20621;-39
2021/03/04 05:51:04;;;;;;;19.80;13.90;;;7.30;98.90;;;;;;5032264;28;20205;-39
2021/03/04 05:53:33;;;;;;;18.83;13.77;;;7.30;98.90;;;;;;5032514;28;20228;-39
2021/03/04 05:56:01;;;;;;;15.63;13.23;;;7.40;98.90;;;;;;5032303;28;20209;-39
2021/03/04 05:58:30;;;;;;;20.27;13.48;;;7.40;98.90;;;;;;5032268;28;20272;-39
2021/03/04 06:00:59;;;;;;;28.10;15.00;;;7.40;98.90;;;;;;5032036;28;20219;-40
2021/03/04 06:03:27;;;;;;;19.02;12.95;;;7.40;98.90;;;;;;5032044;28;20232;-42
2021/03/04 06:05:54;;;;;;;21.70;13.10;;;7.40;98.90;;;;;;5032351;28;20208;-41
2021/03/04 06:08:21;;;;;;;20.20;14.27;;;7.40;98.90;;;;;;5032528;28;20326;-40
2021/03/04 06:10:50;;;;;;;25.30;17.30;;;7.40;98.90;;;;;;5032204;28;20232;-40
2021/03/04 06:13:19;;;;;;;20.80;16.38;;;7.40;98.80;;;;;;5032121;28;20275;-39
2021/03/04 06:15:46;;;;;;;22.98;14.02;;;7.40;98.70;;;;;;5031968;28;20747;-39
2021/03/04 06:18:14;;;;;;;30.13;20.05;;;7.50;98.60;;;;;;5031944;28;20213;-40
2021/03/04 06:20:41;;;;;;;50.05;37.42;;;7.50;98.50;;;;;;5031857;28;20212;-39
2021/03/04 06:23:09;;;;;;;30.92;19.17;;;7.60;98.40;;;;;;5032007;28;20261;-38
2021/03/04 06:25:37;;;;;;;20.90;13.70;;;7.60;98.30;;;;;;5031911;28;20655;-39
2021/03/04 06:28:05;;;;;;;20.92;14.20;;;7.70;98.20;;;;;;5032019;28;20701;-39
2021/03/04 06:30:37;;;;;;;22.02;14.07;;;7.70;98.10;;;;;;5032090;28;20219;-38
2021/03/04 06:33:06;;;;;;;18.40;13.73;;;7.70;98.00;;;;;;5031969;28;20663;-40
2021/03/04 06:35:34;;;;;;;25.15;15.57;;;7.80;98.10;;;;;;5031839;28;20678;-40
2021/03/04 06:38:13;;;;;;;19.75;14.00;;;7.80;98.10;;;;;;5031535;28;20223;-41
2021/03/04 06:40:40;;;;;;;17.40;13.73;;;7.80;97.90;;;;;;5031764;28;20220;-41
2021/03/04 06:43:07;;;;;;;20.75;13.13;;;7.80;97.90;;;;;;5031665;28;20323;-43
2021/03/04 06:45:37;;;;;;;98.18;21.80;;;7.90;97.90;;;;;;5031972;28;20304;-42
2021/03/04 06:48:06;;;;;;;23.55;12.60;;;7.90;97.80;;;;;;5032010;28;20204;-44
2021/03/04 06:50:34;;;;;;;29.98;14.73;;;7.90;97.70;;;;;;5032293;28;20204;-43
2021/03/04 06:53:11;;;;;;;28.17;15.15;;;7.90;97.70;;;;;;5031834;28;20274;-42
2021/03/04 06:55:50;;;;;;;27.58;15.27;;;8.00;97.60;;;;;;5031803;28;20255;-41
2021/03/04 06:58:25;;;;;;;34.35;17.02;;;8.00;97.50;;;;;;5031878;28;20204;-42
2021/03/04 07:01:06;;;;;;;26.52;14.43;;;8.10;97.30;;;;;;5031820;28;20208;-42
2021/03/04 07:03:38;;;;;;;20.40;11.52;;;8.20;97.40;;;;;;5031604;28;20278;-42
2021/03/04 07:06:07;;;;;;;18.33;11.27;;;8.20;97.00;;;;;;5031712;28;20302;-42
2021/03/04 07:08:35;;;;;;;22.45;11.45;;;8.20;96.90;;;;;;5031529;28;20213;-43
2021/03/04 07:11:04;;;;;;;16.73;11.40;;;8.20;96.80;;;;;;5032248;28;20644;-44
2021/03/04 07:13:32;;;;;;;19.92;12.20;;;8.20;96.70;;;;;;5035220;28;20323;-42
2021/03/04 07:16:06;;;;;;;27.10;16.60;;;8.30;96.60;;;;;;5035234;28;20213;-43
2021/03/04 07:18:41;;;;;;;22.83;11.23;;;8.30;96.50;;;;;;5035205;28;20212;-44
2021/03/04 07:21:10;;;;;;;16.85;11.13;;;8.30;96.40;;;;;;5035406;28;20624;-42
2021/03/04 07:23:38;;;;;;;25.67;11.48;;;8.40;96.40;;;;;;5035418;28;20207;-41
2021/03/04 07:26:06;;;;;;;17.40;11.23;;;8.40;96.20;;;;;;5035063;28;20266;-41
2021/03/04 07:28:34;;;;;;;18.15;11.88;;;8.40;96.10;;;;;;5034814;28;20295;-40
2021/03/04 07:31:02;;;;;;;19.00;11.10;;;8.50;95.90;;;;;;5035063;28;20251;-41
2021/03/04 07:33:32;;;;;;;24.55;13.32;;;8.50;95.70;;;;;;5035227;28;20232;-41
2021/03/04 07:36:01;;;;;;;18.45;12.80;;;8.60;95.60;;;;;;5035104;28;20527;-41
2021/03/04 07:38:30;;;;;;;21.73;14.20;;;8.70;95.50;;;;;;5035010;28;20219;-41
2021/03/04 07:41:05;;;;;;;22.27;17.33;;;8.80;95.30;;;;;;5034953;28;20360;-41
2021/03/04 07:43:52;;;;;;;31.67;16.95;;;8.90;95.20;;;;;;5034854;28;20633;-41
2021/03/04 07:46:30;;;;;;;35.17;23.33;;;9.10;95.30;;;;;;5035019;28;20330;-42
2021/03/04 07:48:58;;;;;;;26.27;18.55;;;9.20;94.70;;;;;;5034877;28;20212;-41
2021/03/04 07:51:26;;;;;;;32.30;17.63;;;9.40;94.50;;;;;;5034694;28;20634;-41
2021/03/04 07:53:54;;;;;;;21.25;14.75;;;9.50;94.30;;;;;;5034624;28;20260;-40
2021/03/04 07:56:25;;;;;;;17.23;12.32;;;9.60;93.90;;;;;;5034172;28;20247;-40
2021/03/04 07:58:53;;;;;;;16.50;13.25;;;9.70;93.60;;;;;;5034479;28;20290;-39
2021/03/04 08:01:20;;;;;;;20.23;13.68;;;9.80;93.40;;;;;;5034451;28;20235;-39
2021/03/04 08:03:48;;;;;;;19.73;14.55;;;9.90;93.40;;;;;;5034338;28;20546;-40
2021/03/04 08:06:17;;;;;;;19.55;15.13;;;9.90;93.20;;;;;;5034025;28;20240;-39
2021/03/04 08:08:46;;;;;;;30.70;26.80;;;10.00;92.80;;;;;;5034457;28;20382;-39
2021/03/04 08:11:24;;;;;;;21.27;17.70;;;10.10;92.50;;;;;;5034306;28;20594;-39
2021/03/04 08:13:51;;;;;;;37.42;30.90;;;10.20;92.40;;;;;;5034108;28;20271;-40
2021/03/04 08:16:19;;;;;;;26.70;20.70;;;10.20;92.30;;;;;;5034310;28;20311;-40
2021/03/04 08:18:56;;;;;;;26.98;21.70;;;10.30;92.30;;;;;;5034034;28;20215;-40
2021/03/04 08:21:25;;;;;;;19.63;13.93;;;10.30;92.10;;;;;;5034135;28;20643;-41
2021/03/04 08:23:52;;;;;;;18.77;13.02;;;10.40;92.10;;;;;;5032844;28;20746;-39
2021/03/04 08:26:23;;;;;;;19.30;14.52;;;10.40;92.00;;;;;;5034195;28;20213;-40
2021/03/04 08:29:01;;;;;;;27.00;16.70;;;10.40;92.00;;;;;;5034171;28;20303;-39
2021/03/04 08:31:29;;;;;;;22.17;16.02;;;10.40;91.80;;;;;;5034247;28;20197;-39
2021/03/04 08:33:56;;;;;;;20.83;13.52;;;10.50;91.70;;;;;;5034281;28;20232;-39
2021/03/04 08:36:24;;;;;;;20.35;13.88;;;10.50;91.40;;;;;;5034048;28;20458;-39
2021/03/04 08:38:52;;;;;;;19.90;14.18;;;10.60;91.20;;;;;;5034037;28;20560;-39
2021/03/04 08:41:23;;;;;;;21.98;14.30;;;10.70;91.00;;;;;;5033867;28;20683;-40
2021/03/04 08:43:51;;;;;;;40.78;28.50;;;10.70;91.00;;;;;;5033674;28;20629;-39
2021/03/04 08:46:19;;;;;;;21.27;16.60;;;10.80;90.80;;;;;;5033522;28;20248;-39
2021/03/04 08:48:47;;;;;;;25.92;15.85;;;10.80;90.80;;;;;;5033727;28;20208;-39
2021/03/04 08:51:16;;;;;;;25.05;18.00;;;10.80;90.70;;;;;;5033550;28;20623;-39
2021/03/04 08:53:47;;;;;;;21.13;14.13;;;10.80;90.70;;;;;;5033377;28;20271;-39
2021/03/04 08:56:14;;;;;;;25.35;14.98;;;10.80;90.70;;;;;;5033392;28;20205;-39
2021/03/04 08:58:43;;;;;;;20.80;15.40;;;10.90;90.70;;;;;;5033446;28;20240;-39
2021/03/04 09:01:11;;;;;;;21.63;14.60;;;10.90;90.70;;;;;;5033288;28;20627;-39
2021/03/04 09:03:41;;;;;;;21.27;15.98;;;10.90;90.60;;;;;;5033455;28;20200;-39
2021/03/04 09:06:10;;;;;;;21.92;14.80;;;10.90;90.70;;;;;;5033111;28;20240;-39
2021/03/04 09:08:39;;;;;;;24.42;17.40;;;10.80;90.60;;;;;;5033117;28;20785;-40
2021/03/04 09:11:08;;;;;;;17.90;14.77;;;10.70;90.80;;;;;;5033463;28;20630;-40
2021/03/04 09:13:36;;;;;;;25.85;15.75;;;10.60;90.90;;;;;;5033373;28;20264;-40
2021/03/04 09:16:06;;;;;;;28.58;15.63;;;10.60;91.30;;;;;;5033253;28;20368;-40
2021/03/04 09:18:42;;;;;;;23.55;15.85;;;10.60;91.20;;;;;;5032896;28;20209;-40
2021/03/04 09:21:11;;;;;;;23.90;16.73;;;10.50;91.20;;;;;;5033009;28;20347;-40
2021/03/04 09:23:38;;;;;;;19.48;15.68;;;10.50;91.20;;;;;;5032731;28;20295;-36
2021/03/04 09:26:07;;;;;;;20.95;15.07;;;10.40;91.20;;;;;;5032898;28;20217;-40
2021/03/04 09:28:37;;;;;;;28.17;17.42;;;10.40;91.20;;;;;;5033152;28;20236;-40
2021/03/04 09:31:11;;;;;;;21.38;14.90;;;10.50;91.20;;;;;;5033111;28;20287;-40
2021/03/04 09:33:39;;;;;;;21.40;15.45;;;10.60;91.10;;;;;;5033308;28;20314;-40
2021/03/04 09:36:07;;;;;;;24.10;16.63;;;10.80;90.80;;;;;;5033024;28;20267;-40
2021/03/04 09:38:35;;;;;;;23.55;17.27;;;10.90;90.70;;;;;;5033444;28;20220;-40
2021/03/04 09:41:16;;;;;;;22.25;16.90;;;11.10;90.40;;;;;;5033596;28;20216;-40
2021/03/04 09:43:44;;;;;;;23.63;16.58;;;11.30;90.20;;;;;;5032755;28;20287;-40
2021/03/04 09:46:24;;;;;;;23.27;18.10;;;11.60;89.80;;;;;;5033057;28;20283;-40
2021/03/04 09:48:52;;;;;;;26.23;16.85;;;11.70;89.10;;;;;;5034636;28;20270;-40
2021/03/04 09:51:19;;;;;;;21.40;16.73;;;11.90;89.30;;;;;;5032715;28;20291;-39
2021/03/04 09:53:47;;;;;;;22.38;16.88;;;12.00;87.80;;;;;;5032525;28;20231;-40
2021/03/04 09:56:20;;;;;;;23.58;16.45;;;12.00;87.60;;;;;;5032647;28;20248;-40
2021/03/04 09:58:48;;;;;;;35.00;23.85;;;12.10;86.90;;;;;;5032404;28;20208;-40
2021/03/04 10:01:15;;;;;;;80.07;37.30;;;12.20;86.80;;;;;;5032580;28;20208;-40
2021/03/04 10:03:43;;;;;;;34.90;19.90;;;12.20;86.30;;;;;;5032688;28;20200;-40
2021/03/04 10:06:21;;;;;;;26.02;17.48;;;12.20;86.10;;;;;;5032377;28;20230;-40
2021/03/04 10:08:53;;;;;;;78.38;53.63;;;12.30;86.30;;;;;;5032334;28;20223;-42
2021/03/04 10:11:23;;;;;;;22.17;16.75;;;12.30;85.00;;;;;;5032202;28;20212;-40
2021/03/04 10:13:50;;;;;;;20.90;15.60;;;12.30;85.10;;;;;;5032257;28;20666;-39
2021/03/04 10:16:18;;;;;;;29.70;21.67;;;12.30;84.90;;;;;;5032648;28;20223;-40
2021/03/04 10:18:46;;;;;;;22.95;16.50;;;12.40;85.10;;;;;;5032583;28;20205;-40
2021/03/04 10:21:13;;;;;;;21.33;15.43;;;12.30;84.20;;;;;;5032058;28;20686;-40
2021/03/04 10:23:40;;;;;;;22.85;15.50;;;12.40;84.30;;;;;;5032062;28;20244;-40
2021/03/04 10:26:08;;;;;;;26.13;18.88;;;12.40;84.40;;;;;;5032482;28;20291;-40
2021/03/04 10:28:35;;;;;;;19.38;15.00;;;12.40;84.30;;;;;;5032362;28;20215;-40
2021/03/04 10:31:02;;;;;;;22.25;15.27;;;12.40;83.40;;;;;;5032113;28;20239;-40
2021/03/04 10:33:30;;;;;;;17.25;14.23;;;12.40;83.30;;;;;;5031912;28;20288;-40
2021/03/04 10:35:57;;;;;;;19.50;14.40;;;12.40;82.90;;;;;;5032181;28;20232;-40
2021/03/04 10:38:24;;;;;;;22.60;14.73;;;12.40;82.90;;;;;;5032001;28;20212;-41
2021/03/04 10:40:51;;;;;;;20.45;14.57;;;12.50;82.70;;;;;;5031874;28;20626;-40
2021/03/04 10:43:18;;;;;;;19.98;15.23;;;12.60;82.20;;;;;;5032064;28;20204;-39
2021/03/04 10:45:46;;;;;;;20.83;14.77;;;12.70;82.00;;;;;;5031290;28;20291;-40
2021/03/04 10:48:14;;;;;;;17.52;14.18;;;12.70;81.70;;;;;;5031832;28;20241;-39
2021/03/04 10:50:41;;;;;;;22.02;13.60;;;12.80;81.30;;;;;;5031639;28;20693;-40
2021/03/04 10:53:08;;;;;;;21.70;14.07;;;12.90;81.80;;;;;;5031398;28;20278;-40
2021/03/04 10:55:40;;;;;;;18.70;12.52;;;13.00;80.80;;;;;;5031735;28;20204;-40
2021/03/04 10:58:08;;;;;;;20.00;14.85;;;13.10;80.00;;;;;;5031672;28;20209;-40
2021/03/04 11:00:35;;;;;;;18.58;13.80;;;13.10;79.60;;;;;;5031721;28;20216;-41
2021/03/04 11:03:04;;;;;;;20.38;15.02;;;13.20;79.60;;;;;;5031813;28;20240;-41
2021/03/04 11:05:31;;;;;;;18.95;14.60;;;13.30;79.00;;;;;;5031972;28;20652;-40
2021/03/04 11:07:58;;;;;;;17.98;12.35;;;13.40;78.40;;;;;;5031725;28;20303;-41
2021/03/04 11:10:25;;;;;;;15.90;12.27;;;13.50;77.00;;;;;;5031945;28;20240;-40
2021/03/04 11:12:53;;;;;;;18.80;11.93;;;13.50;76.60;;;;;;5031618;28;20292;-39
2021/03/04 11:15:20;;;;;;;18.88;13.18;;;13.60;76.10;;;;;;5031806;28;20299;-40
2021/03/04 11:17:49;;;;;;;17.00;12.77;;;13.70;75.40;;;;;;5031707;28;20208;-40
2021/03/04 11:20:18;;;;;;;16.65;13.63;;;13.70;74.60;;;;;;5031809;28;20204;-40
2021/03/04 11:22:45;;;;;;;18.63;12.93;;;13.70;74.30;;;;;;5031769;28;20243;-39
2021/03/04 11:25:13;;;;;;;15.43;12.18;;;13.70;74.40;;;;;;5031503;28;20221;-39
2021/03/04 11:27:39;;;;;;;19.60;12.68;;;13.70;74.00;;;;;;5031414;28;20626;-39
2021/03/04 11:30:08;;;;;;;16.65;11.93;;;13.80;73.60;;;;;;5031407;28;20213;-39
2021/03/04 11:32:35;;;;;;;15.73;12.02;;;13.80;73.60;;;;;;5031335;28;20221;-41
2021/03/04 11:35:03;;;;;;;16.13;11.63;;;13.90;73.40;;;;;;5031161;28;20233;-39
2021/03/04 11:37:32;;;;;;;16.25;13.10;;;14.00;72.90;;;;;;5031123;28;20652;-39
2021/03/04 11:39:58;;;;;;;15.75;12.32;;;14.10;72.80;;;;;;5031191;28;20240;-39
2021/03/04 11:42:27;;;;;;;17.63;12.18;;;14.10;72.60;;;;;;5031277;28;20212;-39
2021/03/04 11:44:55;;;;;;;15.23;11.52;;;14.10;71.80;;;;;;5030882;28;20336;-39
2021/03/04 11:47:22;;;;;;;17.60;12.30;;;14.00;72.10;;;;;;5031255;28;20255;-39
2021/03/04 11:49:49;;;;;;;13.60;10.98;;;14.00;71.50;;;;;;5031500;28;20231;-40
2021/03/04 11:52:16;;;;;;;13.57;10.20;;;14.00;70.90;;;;;;5031032;28;20213;-40
2021/03/04 11:54:44;;;;;;;14.30;11.75;;;14.10;69.80;;;;;;5030948;28;20248;-40
2021/03/04 11:57:11;;;;;;;15.13;10.27;;;14.30;69.20;;;;;;5031759;28;20223;-40
2021/03/04 11:59:38;;;;;;;13.98;10.95;;;14.40;67.80;;;;;;5034429;28;20299;-40
2021/03/04 12:02:05;;;;;;;13.45;10.63;;;14.60;67.30;;;;;;5034497;28;20268;-40
2021/03/04 12:04:33;;;;;;;17.90;12.25;;;14.60;67.10;;;;;;5034866;28;20204;-40
2021/03/04 12:07:00;;;;;;;27.80;18.23;;;14.60;66.60;;;;;;5034475;28;20231;-38
2021/03/04 12:09:27;;;;;;;30.05;17.98;;;14.60;66.70;;;;;;5034429;28;20641;-39
2021/03/04 12:11:55;;;;;;;16.67;11.35;;;14.70;65.90;;;;;;5034495;28;20204;-40
2021/03/04 12:14:22;;;;;;;15.48;11.23;;;14.70;65.30;;;;;;5034192;28;20797;-39
2021/03/04 12:16:50;;;;;;;14.38;11.10;;;14.60;65.70;;;;;;5034300;28;20647;-40
2021/03/04 12:19:18;;;;;;;13.45;10.82;;;14.50;64.70;;;;;;5034476;28;20559;-40
2021/03/04 12:21:45;;;;;;;15.32;11.55;;;14.30;65.10;;;;;;5034091;28;20231;-40
2021/03/04 12:24:13;;;;;;;17.15;10.90;;;14.20;66.00;;;;;;5034223;28;20651;-40
2021/03/04 12:26:46;;;;;;;13.77;11.82;;;14.20;66.20;;;;;;5033925;28;20729;-39
2021/03/04 12:29:15;;;;;;;13.90;10.68;;;14.20;66.00;;;;;;5034168;28;20599;-39
2021/03/04 12:31:42;;;;;;;13.27;9.93;;;14.40;66.40;;;;;;5034044;28;20222;-40
2021/03/04 12:34:10;;;;;;;14.50;8.65;;;14.70;64.60;;;;;;5033721;28;20233;-41
2021/03/04 12:36:43;;;;;;;11.73;9.43;;;14.80;62.70;;;;;;5034020;28;20447;-40
2021/03/04 12:39:11;;;;;;;12.02;8.57;;;14.90;60.90;;;;;;5033852;28;20216;-40
2021/03/04 12:41:39;;;;;;;14.85;8.93;;;14.90;60.60;;;;;;5033891;28;20275;-40